sensor_id;sensor_type;location;lat;lon;timestamp;pressure;altitude;pressure_sealevel;temperature
69552;BMP280;63774;45.292;11.784;2024-02-14T00:00:01;102507.95;;;19.29
69552;BMP280;63774;45.292;11.784;2024-02-14T00:02:28;102514.42;;;19.29
69552;BMP280;63774;45.292;11.784;2024-02-14T00:04:53;102518.20;;;19.29
69552;BMP280;63774;45.292;11.784;2024-02-14T00:07:20;102519.09;;;19.27
69552;BMP280;63774;45.292;11.784;2024-02-14T00:09:46;102524.96;;;19.26
69552;BMP280;63774;45.292;11.784;2024-02-14T00:12:11;102525.46;;;19.23
69552;BMP280;63774;45.292;11.784;2024-02-14T00:14:38;102529.95;;;19.23
69552;BMP280;63774;45.292;11.784;2024-02-14T00:17:03;102532.98;;;19.21
69552;BMP280;63774;45.292;11.784;2024-02-14T00:19:30;102537.52;;;19.20
69552;BMP280;63774;45.292;11.784;2024-02-14T00:21:56;102537.51;;;19.20
69552;BMP280;63774;45.292;11.784;2024-02-14T00:24:21;102539.69;;;19.17
69552;BMP280;63774;45.292;11.784;2024-02-14T00:26:49;102546.63;;;19.15
69552;BMP280;63774;45.292;11.784;2024-02-14T00:29:15;102549.45;;;19.13
69552;BMP280;63774;45.292;11.784;2024-02-14T00:31:40;102552.27;;;19.15
69552;BMP280;63774;45.292;11.784;2024-02-14T00:34:08;102550.98;;;19.12
69552;BMP280;63774;45.292;11.784;2024-02-14T00:36:33;102552.52;;;19.12
69552;BMP280;63774;45.292;11.784;2024-02-14T00:38:59;102553.25;;;19.10
69552;BMP280;63774;45.292;11.784;2024-02-14T00:41:24;102552.40;;;19.07
69552;BMP280;63774;45.292;11.784;2024-02-14T00:43:55;102554.89;;;19.07
69552;BMP280;63774;45.292;11.784;2024-02-14T00:46:21;102550.65;;;19.05
69552;BMP280;63774;45.292;11.784;2024-02-14T00:48:49;102551.82;;;19.04
69552;BMP280;63774;45.292;11.784;2024-02-14T00:51:15;102549.59;;;19.03
69552;BMP280;63774;45.292;11.784;2024-02-14T00:53:40;102558.86;;;19.04
69552;BMP280;63774;45.292;11.784;2024-02-14T00:56:07;102565.63;;;19.04
69552;BMP280;63774;45.292;11.784;2024-02-14T00:58:32;102568.75;;;19.01
69552;BMP280;63774;45.292;11.784;2024-02-14T01:00:58;102570.38;;;18.99
69552;BMP280;63774;45.292;11.784;2024-02-14T01:03:23;102573.84;;;18.98
69552;BMP280;63774;45.292;11.784;2024-02-14T01:05:49;102572.44;;;18.97
69552;BMP280;63774;45.292;11.784;2024-02-14T01:08:15;102572.58;;;18.96
69552;BMP280;63774;45.292;11.784;2024-02-14T01:10:40;102575.36;;;18.96
69552;BMP280;63774;45.292;11.784;2024-02-14T01:13:06;102582.19;;;18.95
69552;BMP280;63774;45.292;11.784;2024-02-14T01:15:32;102591.52;;;18.95
69552;BMP280;63774;45.292;11.784;2024-02-14T01:17:58;102593.59;;;18.94
69552;BMP280;63774;45.292;11.784;2024-02-14T01:20:24;102593.88;;;18.94
69552;BMP280;63774;45.292;11.784;2024-02-14T01:22:49;102594.61;;;18.93
69552;BMP280;63774;45.292;11.784;2024-02-14T01:25:15;102593.98;;;18.93
69552;BMP280;63774;45.292;11.784;2024-02-14T01:27:40;102589.50;;;18.93
69552;BMP280;63774;45.292;11.784;2024-02-14T01:30:07;102589.61;;;18.93
69552;BMP280;63774;45.292;11.784;2024-02-14T01:32:32;102589.35;;;18.91
69552;BMP280;63774;45.292;11.784;2024-02-14T01:34:58;102592.22;;;18.90
69552;BMP280;63774;45.292;11.784;2024-02-14T01:37:24;102592.41;;;18.89
69552;BMP280;63774;45.292;11.784;2024-02-14T01:39:50;102590.80;;;18.89
69552;BMP280;63774;45.292;11.784;2024-02-14T01:42:16;102593.25;;;18.89
69552;BMP280;63774;45.292;11.784;2024-02-14T01:44:41;102592.14;;;18.89
69552;BMP280;63774;45.292;11.784;2024-02-14T01:47:09;102588.79;;;18.87
69552;BMP280;63774;45.292;11.784;2024-02-14T01:49:35;102588.45;;;18.86
69552;BMP280;63774;45.292;11.784;2024-02-14T01:52:03;102586.42;;;18.85
69552;BMP280;63774;45.292;11.784;2024-02-14T01:54:33;102590.11;;;18.84
69552;BMP280;63774;45.292;11.784;2024-02-14T01:57:00;102589.98;;;18.82
69552;BMP280;63774;45.292;11.784;2024-02-14T01:59:26;102595.84;;;18.81
69552;BMP280;63774;45.292;11.784;2024-02-14T02:01:52;102593.35;;;18.80
69552;BMP280;63774;45.292;11.784;2024-02-14T02:04:18;102584.45;;;18.80
69552;BMP280;63774;45.292;11.784;2024-02-14T02:06:44;102585.30;;;18.79
69552;BMP280;63774;45.292;11.784;2024-02-14T02:09:09;102583.77;;;18.79
69552;BMP280;63774;45.292;11.784;2024-02-14T02:11:52;102583.13;;;18.78
69552;BMP280;63774;45.292;11.784;2024-02-14T02:14:21;102578.59;;;18.78
69552;BMP280;63774;45.292;11.784;2024-02-14T02:16:47;102579.05;;;18.77
69552;BMP280;63774;45.292;11.784;2024-02-14T02:19:13;102573.88;;;18.76
69552;BMP280;63774;45.292;11.784;2024-02-14T02:21:41;102569.58;;;18.76
69552;BMP280;63774;45.292;11.784;2024-02-14T02:24:08;102565.33;;;18.76
69552;BMP280;63774;45.292;11.784;2024-02-14T02:26:33;102565.65;;;18.75
69552;BMP280;63774;45.292;11.784;2024-02-14T02:28:58;102564.73;;;18.75
69552;BMP280;63774;45.292;11.784;2024-02-14T02:31:25;102569.95;;;18.74
69552;BMP280;63774;45.292;11.784;2024-02-14T02:33:51;102573.02;;;18.74
69552;BMP280;63774;45.292;11.784;2024-02-14T02:36:17;102571.36;;;18.73
69552;BMP280;63774;45.292;11.784;2024-02-14T02:38:42;102569.00;;;18.74
69552;BMP280;63774;45.292;11.784;2024-02-14T02:41:09;102571.40;;;18.74
69552;BMP280;63774;45.292;11.784;2024-02-14T02:43:35;102572.20;;;18.73
69552;BMP280;63774;45.292;11.784;2024-02-14T02:46:01;102573.48;;;18.73
69552;BMP280;63774;45.292;11.784;2024-02-14T02:48:27;102569.92;;;18.72
69552;BMP280;63774;45.292;11.784;2024-02-14T02:50:53;102569.97;;;18.71
69552;BMP280;63774;45.292;11.784;2024-02-14T02:53:19;102573.42;;;18.71
69552;BMP280;63774;45.292;11.784;2024-02-14T02:55:45;102576.29;;;18.68
69552;BMP280;63774;45.292;11.784;2024-02-14T02:58:11;102579.48;;;18.68
69552;BMP280;63774;45.292;11.784;2024-02-14T03:00:37;102578.30;;;18.67
69552;BMP280;63774;45.292;11.784;2024-02-14T03:03:02;102578.16;;;18.65
69552;BMP280;63774;45.292;11.784;2024-02-14T03:05:30;102579.66;;;18.65
69552;BMP280;63774;45.292;11.784;2024-02-14T03:07:58;102581.95;;;18.65
69552;BMP280;63774;45.292;11.784;2024-02-14T03:10:25;102585.55;;;18.63
69552;BMP280;63774;45.292;11.784;2024-02-14T03:12:51;102590.11;;;18.63
69552;BMP280;63774;45.292;11.784;2024-02-14T03:15:18;102593.84;;;18.62
69552;BMP280;63774;45.292;11.784;2024-02-14T03:17:45;102599.66;;;18.62
69552;BMP280;63774;45.292;11.784;2024-02-14T03:20:11;102598.73;;;18.62
69552;BMP280;63774;45.292;11.784;2024-02-14T03:22:43;102598.58;;;18.63
69552;BMP280;63774;45.292;11.784;2024-02-14T03:25:19;102599.23;;;18.62
69552;BMP280;63774;45.292;11.784;2024-02-14T03:27:44;102605.56;;;18.62
69552;BMP280;63774;45.292;11.784;2024-02-14T03:30:16;102607.39;;;18.60
69552;BMP280;63774;45.292;11.784;2024-02-14T03:32:43;102611.74;;;18.62
69552;BMP280;63774;45.292;11.784;2024-02-14T03:35:09;102614.41;;;18.60
69552;BMP280;63774;45.292;11.784;2024-02-14T03:37:37;102611.86;;;18.60
69552;BMP280;63774;45.292;11.784;2024-02-14T03:40:05;102614.59;;;18.58
69552;BMP280;63774;45.292;11.784;2024-02-14T03:42:32;102615.52;;;18.57
69552;BMP280;63774;45.292;11.784;2024-02-14T03:44:58;102620.35;;;18.57
69552;BMP280;63774;45.292;11.784;2024-02-14T03:47:31;102622.91;;;18.56
69552;BMP280;63774;45.292;11.784;2024-02-14T03:49:57;102628.10;;;18.57
69552;BMP280;63774;45.292;11.784;2024-02-14T03:52:22;102630.45;;;18.58
69552;BMP280;63774;45.292;11.784;2024-02-14T03:54:48;102635.95;;;18.57
69552;BMP280;63774;45.292;11.784;2024-02-14T03:57:13;102640.20;;;18.57
69552;BMP280;63774;45.292;11.784;2024-02-14T03:59:39;102644.65;;;18.57
69552;BMP280;63774;45.292;11.784;2024-02-14T04:02:05;102647.48;;;18.59
69552;BMP280;63774;45.292;11.784;2024-02-14T04:04:36;102643.83;;;18.57
69552;BMP280;63774;45.292;11.784;2024-02-14T04:07:02;102647.48;;;18.58
69552;BMP280;63774;45.292;11.784;2024-02-14T04:09:28;102650.29;;;18.58
69552;BMP280;63774;45.292;11.784;2024-02-14T04:11:53;102650.31;;;18.57
69552;BMP280;63774;45.292;11.784;2024-02-14T04:14:19;102647.54;;;18.55
69552;BMP280;63774;45.292;11.784;2024-02-14T04:16:44;102650.77;;;18.54
69552;BMP280;63774;45.292;11.784;2024-02-14T04:19:09;102652.30;;;18.55
69552;BMP280;63774;45.292;11.784;2024-02-14T04:21:37;102650.40;;;18.53
69552;BMP280;63774;45.292;11.784;2024-02-14T04:24:03;102650.86;;;18.52
69552;BMP280;63774;45.292;11.784;2024-02-14T04:26:29;102646.27;;;18.51
69552;BMP280;63774;45.292;11.784;2024-02-14T04:28:54;102639.75;;;18.52
69552;BMP280;63774;45.292;11.784;2024-02-14T04:31:20;102641.52;;;18.51
69552;BMP280;63774;45.292;11.784;2024-02-14T04:33:45;102641.80;;;18.50
69552;BMP280;63774;45.292;11.784;2024-02-14T04:36:18;102642.34;;;18.49
69552;BMP280;63774;45.292;11.784;2024-02-14T04:38:44;102641.33;;;18.49
69552;BMP280;63774;45.292;11.784;2024-02-14T04:41:10;102643.87;;;18.48
69552;BMP280;63774;45.292;11.784;2024-02-14T04:43:35;102643.84;;;18.47
69552;BMP280;63774;45.292;11.784;2024-02-14T04:46:01;102643.75;;;18.47
69552;BMP280;63774;45.292;11.784;2024-02-14T04:48:26;102646.91;;;18.48
69552;BMP280;63774;45.292;11.784;2024-02-14T04:50:53;102651.05;;;18.48
69552;BMP280;63774;45.292;11.784;2024-02-14T04:53:18;102654.81;;;18.49
69552;BMP280;63774;45.292;11.784;2024-02-14T04:55:45;102653.51;;;18.48
69552;BMP280;63774;45.292;11.784;2024-02-14T04:58:10;102655.03;;;18.49
69552;BMP280;63774;45.292;11.784;2024-02-14T05:00:36;102659.95;;;18.47
69552;BMP280;63774;45.292;11.784;2024-02-14T05:03:01;102667.28;;;18.48
69552;BMP280;63774;45.292;11.784;2024-02-14T05:05:27;102662.23;;;18.47
69552;BMP280;63774;45.292;11.784;2024-02-14T05:07:53;102653.22;;;18.46
69552;BMP280;63774;45.292;11.784;2024-02-14T05:10:19;102650.24;;;18.44
69552;BMP280;63774;45.292;11.784;2024-02-14T05:12:44;102652.98;;;18.45
69552;BMP280;63774;45.292;11.784;2024-02-14T05:15:10;102648.34;;;18.44
69552;BMP280;63774;45.292;11.784;2024-02-14T05:17:37;102653.55;;;18.42
69552;BMP280;63774;45.292;11.784;2024-02-14T05:20:05;102658.37;;;18.43
69552;BMP280;63774;45.292;11.784;2024-02-14T05:22:37;102657.58;;;18.41
69552;BMP280;63774;45.292;11.784;2024-02-14T05:25:06;102655.67;;;18.41
69552;BMP280;63774;45.292;11.784;2024-02-14T05:27:37;102654.37;;;18.40
69552;BMP280;63774;45.292;11.784;2024-02-14T05:30:03;102654.65;;;18.40
69552;BMP280;63774;45.292;11.784;2024-02-14T05:32:35;102657.29;;;18.39
69552;BMP280;63774;45.292;11.784;2024-02-14T05:35:00;102662.90;;;18.40
69552;BMP280;63774;45.292;11.784;2024-02-14T05:37:26;102670.95;;;18.40
69552;BMP280;63774;45.292;11.784;2024-02-14T05:39:55;102669.50;;;18.41
69552;BMP280;63774;45.292;11.784;2024-02-14T05:42:21;102674.80;;;18.43
69552;BMP280;63774;45.292;11.784;2024-02-14T05:44:47;102678.22;;;18.44
69552;BMP280;63774;45.292;11.784;2024-02-14T05:47:13;102677.06;;;18.43
69552;BMP280;63774;45.292;11.784;2024-02-14T05:49:39;102678.73;;;18.45
69552;BMP280;63774;45.292;11.784;2024-02-14T05:52:06;102686.27;;;18.45
69552;BMP280;63774;45.292;11.784;2024-02-14T05:54:32;102691.33;;;18.44
69552;BMP280;63774;45.292;11.784;2024-02-14T05:56:57;102691.91;;;18.43
69552;BMP280;63774;45.292;11.784;2024-02-14T05:59:23;102691.75;;;18.44
69552;BMP280;63774;45.292;11.784;2024-02-14T06:01:49;102698.52;;;18.43
69552;BMP280;63774;45.292;11.784;2024-02-14T06:04:14;102700.29;;;18.43
69552;BMP280;63774;45.292;11.784;2024-02-14T06:06:39;102703.29;;;18.42
69552;BMP280;63774;45.292;11.784;2024-02-14T06:09:05;102707.84;;;18.42
69552;BMP280;63774;45.292;11.784;2024-02-14T06:11:36;102710.89;;;18.42
69552;BMP280;63774;45.292;11.784;2024-02-14T06:14:05;102711.25;;;18.40
69552;BMP280;63774;45.292;11.784;2024-02-14T06:16:31;102715.33;;;18.40
69552;BMP280;63774;45.292;11.784;2024-02-14T06:18:57;102720.93;;;18.40
69552;BMP280;63774;45.292;11.784;2024-02-14T06:21:22;102719.70;;;18.40
69552;BMP280;63774;45.292;11.784;2024-02-14T06:23:47;102719.16;;;18.40
69552;BMP280;63774;45.292;11.784;2024-02-14T06:26:13;102717.49;;;18.41
69552;BMP280;63774;45.292;11.784;2024-02-14T06:28:39;102731.30;;;18.41
69552;BMP280;63774;45.292;11.784;2024-02-14T06:31:05;102744.35;;;18.42
69552;BMP280;63774;45.292;11.784;2024-02-14T06:33:30;102743.14;;;18.42
69552;BMP280;63774;45.292;11.784;2024-02-14T06:35:55;102749.83;;;18.42
69552;BMP280;63774;45.292;11.784;2024-02-14T06:38:21;102747.31;;;18.41
69552;BMP280;63774;45.292;11.784;2024-02-14T06:40:46;102744.61;;;18.41
69552;BMP280;63774;45.292;11.784;2024-02-14T06:43:12;102745.84;;;18.41
69552;BMP280;63774;45.292;11.784;2024-02-14T06:45:38;102743.23;;;18.41
69552;BMP280;63774;45.292;11.784;2024-02-14T06:48:04;102743.95;;;18.41
69552;BMP280;63774;45.292;11.784;2024-02-14T06:50:30;102743.13;;;18.41
69552;BMP280;63774;45.292;11.784;2024-02-14T06:52:56;102750.97;;;18.41
69552;BMP280;63774;45.292;11.784;2024-02-14T06:55:29;102757.70;;;18.40
69552;BMP280;63774;45.292;11.784;2024-02-14T06:57:59;102759.64;;;18.39
69552;BMP280;63774;45.292;11.784;2024-02-14T07:00:24;102757.32;;;18.37
69552;BMP280;63774;45.292;11.784;2024-02-14T07:02:50;102759.00;;;18.38
69552;BMP280;63774;45.292;11.784;2024-02-14T07:05:15;102762.16;;;18.38
69552;BMP280;63774;45.292;11.784;2024-02-14T07:07:41;102767.02;;;18.37
69552;BMP280;63774;45.292;11.784;2024-02-14T07:10:08;102774.45;;;18.35
69552;BMP280;63774;45.292;11.784;2024-02-14T07:12:33;102776.96;;;18.35
69552;BMP280;63774;45.292;11.784;2024-02-14T07:15:01;102775.56;;;18.35
69552;BMP280;63774;45.292;11.784;2024-02-14T07:17:26;102775.48;;;18.37
69552;BMP280;63774;45.292;11.784;2024-02-14T07:19:52;102779.66;;;18.37
69552;BMP280;63774;45.292;11.784;2024-02-14T07:22:17;102781.98;;;18.37
69552;BMP280;63774;45.292;11.784;2024-02-14T07:24:45;102783.06;;;18.38
69552;BMP280;63774;45.292;11.784;2024-02-14T07:27:12;102778.66;;;18.36
69552;BMP280;63774;45.292;11.784;2024-02-14T07:29:38;102782.41;;;18.38
69552;BMP280;63774;45.292;11.784;2024-02-14T07:32:03;102783.86;;;18.37
69552;BMP280;63774;45.292;11.784;2024-02-14T07:34:29;102789.40;;;18.36
69552;BMP280;63774;45.292;11.784;2024-02-14T07:36:54;102791.21;;;18.36
69552;BMP280;63774;45.292;11.784;2024-02-14T07:39:20;102793.95;;;18.36
69552;BMP280;63774;45.292;11.784;2024-02-14T07:41:45;102799.66;;;18.35
69552;BMP280;63774;45.292;11.784;2024-02-14T07:44:11;102805.36;;;18.34
69552;BMP280;63774;45.292;11.784;2024-02-14T07:46:36;102807.01;;;18.35
69552;BMP280;63774;45.292;11.784;2024-02-14T07:49:02;102813.32;;;18.35
69552;BMP280;63774;45.292;11.784;2024-02-14T07:51:29;102814.77;;;18.35
69552;BMP280;63774;45.292;11.784;2024-02-14T07:53:59;102811.15;;;18.32
69552;BMP280;63774;45.292;11.784;2024-02-14T07:56:24;102810.42;;;18.32
69552;BMP280;63774;45.292;11.784;2024-02-14T07:58:49;102810.81;;;18.31
69552;BMP280;63774;45.292;11.784;2024-02-14T08:01:15;102811.06;;;18.31
69552;BMP280;63774;45.292;11.784;2024-02-14T08:03:40;102810.91;;;18.31
69552;BMP280;63774;45.292;11.784;2024-02-14T08:06:06;102806.60;;;18.33
69552;BMP280;63774;45.292;11.784;2024-02-14T08:08:31;-11215.55;;;180.08
69552;BMP280;63774;45.292;11.784;2024-02-14T08:10:57;-11351.03;;;180.10
69552;BMP280;63774;45.292;11.784;2024-02-14T08:13:22;-10944.59;;;180.02
69552;BMP280;63774;45.292;11.784;2024-02-14T08:15:48;-10944.59;;;180.02
69552;BMP280;63774;45.292;11.784;2024-02-14T08:18:13;-11215.55;;;180.08
69552;BMP280;63774;45.292;11.784;2024-02-14T08:20:40;-11080.07;;;180.05
69552;BMP280;63774;45.292;11.784;2024-02-14T08:23:06;-11215.55;;;180.08
69552;BMP280;63774;45.292;11.784;2024-02-14T08:25:32;-10944.59;;;180.02
69552;BMP280;63774;45.292;11.784;2024-02-14T08:27:57;-11215.55;;;180.08
69552;BMP280;63774;45.292;11.784;2024-02-14T08:30:22;-11486.51;;;180.13
69552;BMP280;63774;45.292;11.784;2024-02-14T08:32:48;-11080.07;;;180.05
69552;BMP280;63774;45.292;11.784;2024-02-14T08:35:13;-11080.07;;;180.05
69552;BMP280;63774;45.292;11.784;2024-02-14T08:37:39;-10944.59;;;180.02
69552;BMP280;63774;45.292;11.784;2024-02-14T08:40:06;-10944.59;;;180.02
69552;BMP280;63774;45.292;11.784;2024-02-14T08:42:35;-11215.55;;;180.08
69552;BMP280;63774;45.292;11.784;2024-02-14T08:45:01;-11080.07;;;180.05
69552;BMP280;63774;45.292;11.784;2024-02-14T08:47:26;-11351.03;;;180.10
69552;BMP280;63774;45.292;11.784;2024-02-14T08:49:52;-11215.55;;;180.08
69552;BMP280;63774;45.292;11.784;2024-02-14T08:52:17;-11080.07;;;180.05
69552;BMP280;63774;45.292;11.784;2024-02-14T08:54:44;-10944.59;;;180.02
69552;BMP280;63774;45.292;11.784;2024-02-14T08:57:09;-11215.55;;;180.08
69552;BMP280;63774;45.292;11.784;2024-02-14T08:59:34;-10944.59;;;180.02
69552;BMP280;63774;45.292;11.784;2024-02-14T09:02:00;-11080.02;;;180.11
69552;BMP280;63774;45.292;11.784;2024-02-14T09:04:27;-11215.55;;;180.08
69552;BMP280;63774;45.292;11.784;2024-02-14T09:06:52;-11215.55;;;180.08
69552;BMP280;63774;45.292;11.784;2024-02-14T09:09:18;-11486.51;;;180.13
69552;BMP280;63774;45.292;11.784;2024-02-14T09:11:45;-11351.03;;;180.10
69552;BMP280;63774;45.292;11.784;2024-02-14T09:14:12;-10944.59;;;180.02
69552;BMP280;63774;45.292;11.784;2024-02-14T09:16:37;-11080.07;;;180.05
69552;BMP280;63774;45.292;11.784;2024-02-14T09:19:04;-11351.03;;;180.10
69552;BMP280;63774;45.292;11.784;2024-02-14T09:21:33;-10944.59;;;180.02
69552;BMP280;63774;45.292;11.784;2024-02-14T09:24:01;-10944.59;;;180.02
69552;BMP280;63774;45.292;11.784;2024-02-14T09:26:26;-11351.03;;;180.10
69552;BMP280;63774;45.292;11.784;2024-02-14T09:28:52;-10944.59;;;180.02
69552;BMP280;63774;45.292;11.784;2024-02-14T09:31:21;-11080.07;;;180.05
69552;BMP280;63774;45.292;11.784;2024-02-14T09:33:49;-11080.07;;;180.05
69552;BMP280;63774;45.292;11.784;2024-02-14T09:36:15;-11080.07;;;180.05
69552;BMP280;63774;45.292;11.784;2024-02-14T09:38:41;-11080.07;;;180.05
69552;BMP280;63774;45.292;11.784;2024-02-14T09:41:34;-11080.07;;;180.05
69552;BMP280;63774;45.292;11.784;2024-02-14T09:44:01;-10944.59;;;180.02
69552;BMP280;63774;45.292;11.784;2024-02-14T09:46:28;-11215.55;;;180.08
69552;BMP280;63774;45.292;11.784;2024-02-14T09:48:56;-11215.55;;;180.08
69552;BMP280;63774;45.292;11.784;2024-02-14T09:51:24;-11215.55;;;180.08
69552;BMP280;63774;45.292;11.784;2024-02-14T09:53:50;-11351.03;;;180.10
69552;BMP280;63774;45.292;11.784;2024-02-14T09:56:19;-11080.07;;;180.05
69552;BMP280;63774;45.292;11.784;2024-02-14T09:58:49;-10944.59;;;180.02
69552;BMP280;63774;45.292;11.784;2024-02-14T10:01:23;-11215.55;;;180.08
69552;BMP280;63774;45.292;11.784;2024-02-14T10:03:53;-11215.55;;;180.08
69552;BMP280;63774;45.292;11.784;2024-02-14T10:06:19;-10944.59;;;180.02
69552;BMP280;63774;45.292;11.784;2024-02-14T10:08:49;-11080.07;;;180.05
69552;BMP280;63774;45.292;11.784;2024-02-14T10:11:19;-10944.59;;;180.02
69552;BMP280;63774;45.292;11.784;2024-02-14T10:13:48;-11080.07;;;180.05
69552;BMP280;63774;45.292;11.784;2024-02-14T10:16:15;-10944.59;;;180.02
69552;BMP280;63774;45.292;11.784;2024-02-14T10:18:41;-11080.07;;;180.05
69552;BMP280;63774;45.292;11.784;2024-02-14T10:21:08;-11215.55;;;180.08
69552;BMP280;63774;45.292;11.784;2024-02-14T10:23:39;-10944.59;;;180.02
69552;BMP280;63774;45.292;11.784;2024-02-14T10:26:05;-11215.55;;;180.08
69552;BMP280;63774;45.292;11.784;2024-02-14T10:28:32;-11215.55;;;180.08
69552;BMP280;63774;45.292;11.784;2024-02-14T10:30:58;-11080.07;;;180.05
69552;BMP280;63774;45.292;11.784;2024-02-14T10:33:27;-10944.59;;;180.02
69552;BMP280;63774;45.292;11.784;2024-02-14T10:35:55;-10944.59;;;180.02
69552;BMP280;63774;45.292;11.784;2024-02-14T10:38:22;-11080.07;;;180.05
69552;BMP280;63774;45.292;11.784;2024-02-14T10:40:48;-11080.07;;;180.05
69552;BMP280;63774;45.292;11.784;2024-02-14T10:43:14;-11080.07;;;180.05
69552;BMP280;63774;45.292;11.784;2024-02-14T10:45:40;-11080.07;;;180.05
69552;BMP280;63774;45.292;11.784;2024-02-14T10:48:06;-11080.07;;;180.05
69552;BMP280;63774;45.292;11.784;2024-02-14T10:50:40;-11080.07;;;180.05
69552;BMP280;63774;45.292;11.784;2024-02-14T10:53:12;-10944.59;;;180.02
69552;BMP280;63774;45.292;11.784;2024-02-14T10:55:40;-10944.59;;;180.02
69552;BMP280;63774;45.292;11.784;2024-02-14T10:58:08;-10944.59;;;180.02
69552;BMP280;63774;45.292;11.784;2024-02-14T11:00:35;-10944.59;;;180.02
69552;BMP280;63774;45.292;11.784;2024-02-14T11:03:02;-11351.03;;;180.10
69552;BMP280;63774;45.292;11.784;2024-02-14T11:05:27;-11215.55;;;180.08
69552;BMP280;63774;45.292;11.784;2024-02-14T11:07:53;-11080.07;;;180.05
69552;BMP280;63774;45.292;11.784;2024-02-14T11:10:20;-10944.59;;;180.02
69552;BMP280;63774;45.292;11.784;2024-02-14T11:12:47;-11351.03;;;180.10
69552;BMP280;63774;45.292;11.784;2024-02-14T11:17:45;-11351.03;;;180.10
69552;BMP280;63774;45.292;11.784;2024-02-14T11:20:21;-11215.55;;;180.08
69552;BMP280;63774;45.292;11.784;2024-02-14T11:23:01;-11215.55;;;180.08
69552;BMP280;63774;45.292;11.784;2024-02-14T11:25:29;-10944.59;;;180.02
69552;BMP280;63774;45.292;11.784;2024-02-14T11:27:58;-10944.59;;;180.02
69552;BMP280;63774;45.292;11.784;2024-02-14T11:30:34;-10944.59;;;180.02
69552;BMP280;63774;45.292;11.784;2024-02-14T11:33:21;-11486.51;;;180.13
69552;BMP280;63774;45.292;11.784;2024-02-14T11:35:49;-10944.59;;;180.02
69552;BMP280;63774;45.292;11.784;2024-02-14T11:38:16;-11080.07;;;180.05
69552;BMP280;63774;45.292;11.784;2024-02-14T11:40:42;-10944.59;;;180.02
69552;BMP280;63774;45.292;11.784;2024-02-14T11:43:15;-10944.59;;;180.02
69552;BMP280;63774;45.292;11.784;2024-02-14T11:45:43;-11080.07;;;180.05
69552;BMP280;63774;45.292;11.784;2024-02-14T11:48:13;-11215.55;;;180.08
69552;BMP280;63774;45.292;11.784;2024-02-14T11:50:42;-11080.07;;;180.05
69552;BMP280;63774;45.292;11.784;2024-02-14T11:53:09;-11080.07;;;180.05
69552;BMP280;63774;45.292;11.784;2024-02-14T11:55:37;-11215.55;;;180.08
69552;BMP280;63774;45.292;11.784;2024-02-14T11:58:14;-10944.59;;;180.02
69552;BMP280;63774;45.292;11.784;2024-02-14T12:00:42;-11080.07;;;180.05
69552;BMP280;63774;45.292;11.784;2024-02-14T12:03:22;-11351.03;;;180.10
69552;BMP280;63774;45.292;11.784;2024-02-14T12:05:53;-10944.59;;;180.02
69552;BMP280;63774;45.292;11.784;2024-02-14T12:08:19;-10944.59;;;180.02
69552;BMP280;63774;45.292;11.784;2024-02-14T12:10:46;-11215.55;;;180.08
69552;BMP280;63774;45.292;11.784;2024-02-14T12:13:20;-11215.55;;;180.08
69552;BMP280;63774;45.292;11.784;2024-02-14T12:15:50;-11351.03;;;180.10
69552;BMP280;63774;45.292;11.784;2024-02-14T12:18:17;-11351.03;;;180.10
69552;BMP280;63774;45.292;11.784;2024-02-14T12:20:45;-10944.59;;;180.02
69552;BMP280;63774;45.292;11.784;2024-02-14T12:23:16;-11080.07;;;180.05
69552;BMP280;63774;45.292;11.784;2024-02-14T12:25:43;-10944.59;;;180.02
69552;BMP280;63774;45.292;11.784;2024-02-14T12:28:13;-11215.55;;;180.08
69552;BMP280;63774;45.292;11.784;2024-02-14T12:33:11;-11351.03;;;180.10
69552;BMP280;63774;45.292;11.784;2024-02-14T12:35:41;-11351.03;;;180.10
69552;BMP280;63774;45.292;11.784;2024-02-14T12:38:11;-11080.07;;;180.05
69552;BMP280;63774;45.292;11.784;2024-02-14T12:40:37;-11080.07;;;180.05
69552;BMP280;63774;45.292;11.784;2024-02-14T12:43:03;-11351.03;;;180.10
69552;BMP280;63774;45.292;11.784;2024-02-14T12:45:31;-11351.03;;;180.10
69552;BMP280;63774;45.292;11.784;2024-02-14T12:47:57;-11080.07;;;180.05
69552;BMP280;63774;45.292;11.784;2024-02-14T12:50:22;-11080.07;;;180.05
69552;BMP280;63774;45.292;11.784;2024-02-14T12:52:48;-11080.07;;;180.05
69552;BMP280;63774;45.292;11.784;2024-02-14T12:55:14;-11215.55;;;180.08
69552;BMP280;63774;45.292;11.784;2024-02-14T12:57:40;-11215.55;;;180.08
69552;BMP280;63774;45.292;11.784;2024-02-14T13:00:06;-11080.07;;;180.05
69552;BMP280;63774;45.292;11.784;2024-02-14T13:02:34;-11080.07;;;180.05
69552;BMP280;63774;45.292;11.784;2024-02-14T13:05:00;-11215.55;;;180.08
69552;BMP280;63774;45.292;11.784;2024-02-14T13:07:27;-10944.59;;;180.02
69552;BMP280;63774;45.292;11.784;2024-02-14T13:09:54;-10944.59;;;180.02
69552;BMP280;63774;45.292;11.784;2024-02-14T13:12:20;-10944.59;;;180.02
69552;BMP280;63774;45.292;11.784;2024-02-14T13:14:46;-11215.55;;;180.08
69552;BMP280;63774;45.292;11.784;2024-02-14T13:17:12;-11080.07;;;180.05
69552;BMP280;63774;45.292;11.784;2024-02-14T13:19:37;-11080.07;;;180.05
69552;BMP280;63774;45.292;11.784;2024-02-14T13:22:05;-11215.55;;;180.08
69552;BMP280;63774;45.292;11.784;2024-02-14T13:24:31;-11080.07;;;180.05
69552;BMP280;63774;45.292;11.784;2024-02-14T13:26:57;-11080.07;;;180.05
69552;BMP280;63774;45.292;11.784;2024-02-14T13:29:25;-11080.07;;;180.05
69552;BMP280;63774;45.292;11.784;2024-02-14T13:31:51;-11080.07;;;180.05
69552;BMP280;63774;45.292;11.784;2024-02-14T13:34:17;-11215.55;;;180.08
69552;BMP280;63774;45.292;11.784;2024-02-14T13:36:45;-11351.03;;;180.10
69552;BMP280;63774;45.292;11.784;2024-02-14T13:39:11;-11215.55;;;180.08
69552;BMP280;63774;45.292;11.784;2024-02-14T13:41:37;-11080.07;;;180.05